EWG625 EDDH-LOWW
Flight info
| Callsign | EWG625 |
|---|---|
| Flight time | N/A |
| Altitude | 35000 |
| Route | RAMAR6G/33 RAMAR Z998 OSKAN M748 HDO DCT EVIKU DCT BITSI DCT MIKOV |
| Aircraft | B738/M-SDE2E3FGHIRWXY/LB1 |
Departure
| Time | N/A |
|---|---|
| Airport | Hamburg Helmut Schmidt Airport (EDDH) |
Arrival
| Time | 2026-04-23 20:56 |
|---|---|
| Airport | Vienna International Airport (LOWW) |
| Time | Latitude | Longitude | Altitude | Speed | Heading |
|---|---|---|---|---|---|
| 2026-04-23 20:09 | 51.79096 | 13.18473 | 35186 ft | 477 kts | 134° |
| 2026-04-23 20:10 | 51.76579 | 13.22013 | 35187 ft | 477 kts | 134° |
| 2026-04-23 20:10 | 51.71509 | 13.29116 | 35190 ft | 477 kts | 134° |
| 2026-04-23 20:11 | 51.66263 | 13.36060 | 35183 ft | 478 kts | 137° |
| 2026-04-23 20:11 | 51.60758 | 13.42485 | 35188 ft | 480 kts | 141° |
| 2026-04-23 20:12 | 51.55385 | 13.48977 | 35188 ft | 476 kts | 131° |
| 2026-04-23 20:12 | 51.50693 | 13.56568 | 35182 ft | 475 kts | 129° |
| 2026-04-23 20:13 | 51.45956 | 13.64047 | 35184 ft | 476 kts | 131° |
| 2026-04-23 20:13 | 51.41019 | 13.71270 | 35180 ft | 477 kts | 133° |
| 2026-04-23 20:14 | 51.35915 | 13.78421 | 35183 ft | 478 kts | 134° |
| 2026-04-23 20:14 | 51.30783 | 13.85494 | 35183 ft | 479 kts | 134° |
| 2026-04-23 20:15 | 51.25635 | 13.92533 | 35180 ft | 478 kts | 134° |
| 2026-04-23 20:15 | 51.20510 | 13.99515 | 35182 ft | 478 kts | 134° |
| 2026-04-23 20:16 | 51.15343 | 14.06530 | 35176 ft | 480 kts | 134° |
| 2026-04-23 20:16 | 51.10168 | 14.13529 | 35175 ft | 480 kts | 134° |
| 2026-04-23 20:17 | 51.04940 | 14.20579 | 35172 ft | 481 kts | 134° |
| 2026-04-23 20:17 | 50.99703 | 14.27619 | 35167 ft | 480 kts | 134° |
| 2026-04-23 20:18 | 50.94357 | 14.34401 | 35166 ft | 484 kts | 140° |
| 2026-04-23 20:18 | 50.91354 | 14.37103 | 35164 ft | 490 kts | 152° |
| 2026-04-23 20:18 | 50.88065 | 14.38962 | 35176 ft | 495 kts | 159° |
| 2026-04-23 20:19 | 50.81227 | 14.41629 | 35174 ft | 499 kts | 164° |
| 2026-04-23 20:19 | 50.74356 | 14.43974 | 35178 ft | 498 kts | 164° |
| 2026-04-23 20:20 | 50.67457 | 14.46377 | 35176 ft | 496 kts | 163° |
| 2026-04-23 20:20 | 50.60599 | 14.48838 | 35176 ft | 497 kts | 163° |
| 2026-04-23 20:21 | 50.53762 | 14.51324 | 35180 ft | 496 kts | 162° |
| 2026-04-23 20:21 | 50.47084 | 14.54530 | 35180 ft | 489 kts | 149° |
| 2026-04-23 20:21 | 50.44152 | 14.57237 | 35179 ft | 480 kts | 137° |
| 2026-04-23 20:22 | 50.41529 | 14.60642 | 35184 ft | 475 kts | 131° |
| 2026-04-23 20:22 | 50.36685 | 14.67917 | 35186 ft | 472 kts | 129° |
| 2026-04-23 20:23 | 50.31931 | 14.75339 | 35186 ft | 474 kts | 129° |
| 2026-04-23 20:23 | 50.27136 | 14.82700 | 35180 ft | 472 kts | 129° |
| 2026-04-23 20:24 | 50.22329 | 14.89980 | 35185 ft | 474 kts | 129° |
| 2026-04-23 20:24 | 50.17447 | 14.97316 | 35183 ft | 476 kts | 129° |
| 2026-04-23 20:25 | 50.12625 | 15.04523 | 35184 ft | 473 kts | 130° |
| 2026-04-23 20:25 | 50.07795 | 15.11718 | 35184 ft | 473 kts | 129° |
| 2026-04-23 20:26 | 50.02966 | 15.18891 | 35183 ft | 473 kts | 129° |
| 2026-04-23 20:26 | 49.98147 | 15.26029 | 35179 ft | 473 kts | 129° |
| 2026-04-23 20:27 | 49.93283 | 15.33212 | 35176 ft | 476 kts | 129° |
| 2026-04-23 20:27 | 49.88447 | 15.40328 | 35175 ft | 472 kts | 129° |
| 2026-04-23 20:28 | 49.83560 | 15.47501 | 35170 ft | 474 kts | 129° |
| 2026-04-23 20:28 | 49.78720 | 15.54588 | 35169 ft | 474 kts | 129° |
| 2026-04-23 20:29 | 49.73845 | 15.61703 | 35164 ft | 474 kts | 129° |
| 2026-04-23 20:29 | 49.68975 | 15.68791 | 35163 ft | 476 kts | 130° |
| 2026-04-23 20:30 | 49.64084 | 15.75887 | 35163 ft | 475 kts | 129° |
| 2026-04-23 20:30 | 49.56723 | 15.86525 | 35161 ft | 475 kts | 130° |
| 2026-04-23 20:31 | 49.51769 | 15.93657 | 35160 ft | 475 kts | 129° |
| 2026-04-23 20:31 | 49.46865 | 16.00699 | 35153 ft | 475 kts | 129° |
| 2026-04-23 20:32 | 49.41957 | 16.07719 | 34971 ft | 466 kts | 129° |
| 2026-04-23 20:32 | 49.39519 | 16.11196 | 34461 ft | 461 kts | 129° |
| 2026-04-23 20:32 | 49.37155 | 16.14567 | 33826 ft | 462 kts | 129° |
| 2026-04-23 20:33 | 49.34708 | 16.18044 | 33013 ft | 465 kts | 130° |
| 2026-04-23 20:33 | 49.32241 | 16.21363 | 32138 ft | 471 kts | 134° |
| 2026-04-23 20:33 | 49.29465 | 16.24457 | 31186 ft | 481 kts | 141° |
| 2026-04-23 20:33 | 49.26495 | 16.27100 | 30196 ft | 489 kts | 146° |
| 2026-04-23 20:34 | 49.23393 | 16.29510 | 29134 ft | 495 kts | 149° |
| 2026-04-23 20:34 | 49.20222 | 16.31821 | 28030 ft | 500 kts | 150° |
| 2026-04-23 20:34 | 49.17007 | 16.34112 | 26945 ft | 503 kts | 150° |
| 2026-04-23 20:34 | 49.13817 | 16.36388 | 26214 ft | 498 kts | 150° |
| 2026-04-23 20:35 | 49.10667 | 16.38644 | 25518 ft | 492 kts | 150° |
| 2026-04-23 20:35 | 49.07507 | 16.40922 | 24750 ft | 488 kts | 150° |
| 2026-04-23 20:35 | 49.04384 | 16.43188 | 23962 ft | 485 kts | 150° |
| 2026-04-23 20:35 | 49.01221 | 16.45492 | 23150 ft | 482 kts | 150° |
| 2026-04-23 20:36 | 48.98159 | 16.47726 | 22367 ft | 480 kts | 150° |
| 2026-04-23 20:36 | 48.95052 | 16.49992 | 21539 ft | 477 kts | 150° |
| 2026-04-23 20:36 | 48.91967 | 16.52243 | 20728 ft | 474 kts | 150° |
| 2026-04-23 20:36 | 48.88920 | 16.54467 | 19911 ft | 472 kts | 150° |
| 2026-04-23 20:37 | 48.85901 | 16.56666 | 19091 ft | 469 kts | 150° |
| 2026-04-23 20:37 | 48.82899 | 16.58851 | 18280 ft | 465 kts | 150° |
| 2026-04-23 20:37 | 48.79882 | 16.60930 | 17527 ft | 462 kts | 153° |
| 2026-04-23 20:37 | 48.76832 | 16.62638 | 17196 ft | 449 kts | 160° |
| 2026-04-23 20:38 | 48.73814 | 16.63868 | 17147 ft | 430 kts | 164° |
| 2026-04-23 20:38 | 48.70867 | 16.64844 | 17135 ft | 421 kts | 165° |
| 2026-04-23 20:38 | 48.67914 | 16.65749 | 17142 ft | 428 kts | 167° |
| 2026-04-23 20:38 | 48.64925 | 16.66664 | 17139 ft | 432 kts | 166° |
| 2026-04-23 20:39 | 48.61959 | 16.67587 | 17137 ft | 430 kts | 166° |
| 2026-04-23 20:39 | 48.58925 | 16.68328 | 17138 ft | 431 kts | 172° |
| 2026-04-23 20:39 | 48.55857 | 16.68595 | 17136 ft | 432 kts | 178° |
| 2026-04-23 20:39 | 48.52825 | 16.68433 | 17136 ft | 431 kts | 183° |
| 2026-04-23 20:40 | 48.49748 | 16.68026 | 17139 ft | 433 kts | 185° |
| 2026-04-23 20:40 | 48.46679 | 16.67521 | 17135 ft | 433 kts | 186° |
| 2026-04-23 20:40 | 48.43636 | 16.67001 | 17133 ft | 431 kts | 185° |
| 2026-04-23 20:40 | 48.40596 | 16.66493 | 17130 ft | 433 kts | 185° |
| 2026-04-23 20:41 | 48.37513 | 16.65995 | 17130 ft | 432 kts | 185° |
| 2026-04-23 20:41 | 48.34520 | 16.65524 | 17127 ft | 433 kts | 185° |
| 2026-04-23 20:41 | 48.31515 | 16.65060 | 17000 ft | 435 kts | 185° |
| 2026-04-23 20:41 | 48.28503 | 16.64598 | 16556 ft | 435 kts | 185° |
| 2026-04-23 20:42 | 48.25521 | 16.64189 | 16102 ft | 427 kts | 182° |
| 2026-04-23 20:42 | 48.22552 | 16.64278 | 15624 ft | 418 kts | 171° |
| 2026-04-23 20:42 | 48.19735 | 16.65410 | 15118 ft | 405 kts | 153° |
| 2026-04-23 20:42 | 48.17393 | 16.67701 | 14638 ft | 391 kts | 133° |
| 2026-04-23 20:43 | 48.15686 | 16.70862 | 14137 ft | 376 kts | 116° |
| 2026-04-23 20:43 | 48.14500 | 16.74350 | 13619 ft | 369 kts | 111° |
| 2026-04-23 20:43 | 48.13395 | 16.77873 | 13065 ft | 366 kts | 110° |
| 2026-04-23 20:43 | 48.12286 | 16.81364 | 12505 ft | 364 kts | 111° |
| 2026-04-23 20:44 | 48.11158 | 16.84826 | 11946 ft | 361 kts | 111° |
| 2026-04-23 20:44 | 48.10032 | 16.88237 | 11416 ft | 359 kts | 111° |
| 2026-04-23 20:44 | 48.08899 | 16.91649 | 10924 ft | 355 kts | 112° |
| 2026-04-23 20:44 | 48.07797 | 16.94949 | 10766 ft | 342 kts | 112° |
| 2026-04-23 20:45 | 48.06746 | 16.98088 | 10693 ft | 326 kts | 112° |
| 2026-04-23 20:45 | 48.05722 | 17.01141 | 10622 ft | 312 kts | 111° |
| 2026-04-23 20:45 | 48.04752 | 17.04040 | 10530 ft | 298 kts | 111° |
| 2026-04-23 20:45 | 48.03834 | 17.06786 | 10424 ft | 288 kts | 111° |
| 2026-04-23 20:46 | 48.02935 | 17.09480 | 10239 ft | 280 kts | 111° |
| 2026-04-23 20:46 | 48.02070 | 17.12051 | 10005 ft | 276 kts | 112° |
| 2026-04-23 20:46 | 48.01003 | 17.14476 | 9640 ft | 283 kts | 128° |
| 2026-04-23 20:46 | 47.99411 | 17.16211 | 9265 ft | 290 kts | 156° |
| 2026-04-23 20:47 | 47.97439 | 17.16758 | 8940 ft | 289 kts | 185° |
| 2026-04-23 20:47 | 47.95522 | 17.16007 | 8603 ft | 283 kts | 210° |
| 2026-04-23 20:47 | 47.93862 | 17.14348 | 8210 ft | 274 kts | 233° |
| 2026-04-23 20:47 | 47.92918 | 17.11959 | 7811 ft | 258 kts | 262° |
| 2026-04-23 20:48 | 47.92798 | 17.09316 | 7439 ft | 245 kts | 285° |
| 2026-04-23 20:48 | 47.93306 | 17.06913 | 7037 ft | 238 kts | 301° |
| 2026-04-23 20:48 | 47.94151 | 17.04775 | 6624 ft | 237 kts | 308° |
| 2026-04-23 20:48 | 47.95164 | 17.02784 | 6211 ft | 236 kts | 314° |
| 2026-04-23 20:49 | 47.96258 | 17.00897 | 5810 ft | 236 kts | 311° |
| 2026-04-23 20:49 | 47.97198 | 16.98869 | 5471 ft | 236 kts | 304° |
| 2026-04-23 20:49 | 47.97979 | 16.96704 | 5149 ft | 235 kts | 301° |
| 2026-04-23 20:49 | 47.98705 | 16.94523 | 4815 ft | 234 kts | 301° |
| 2026-04-23 20:50 | 47.99424 | 16.92361 | 4473 ft | 232 kts | 301° |
| 2026-04-23 20:50 | 48.00131 | 16.90236 | 4146 ft | 231 kts | 301° |
| 2026-04-23 20:50 | 48.00838 | 16.88101 | 3962 ft | 223 kts | 301° |
| 2026-04-23 20:50 | 48.01508 | 16.86070 | 3826 ft | 215 kts | 302° |
| 2026-04-23 20:51 | 48.02133 | 16.84182 | 3708 ft | 208 kts | 302° |
| 2026-04-23 20:51 | 48.02761 | 16.82284 | 3567 ft | 199 kts | 302° |
| 2026-04-23 20:51 | 48.03354 | 16.80487 | 3468 ft | 185 kts | 303° |
| 2026-04-23 20:51 | 48.03897 | 16.78837 | 3417 ft | 168 kts | 303° |
| 2026-04-23 20:52 | 48.04385 | 16.77353 | 3389 ft | 150 kts | 304° |
| 2026-04-23 20:52 | 48.04865 | 16.75913 | 3337 ft | 152 kts | 304° |
| 2026-04-23 20:52 | 48.05344 | 16.74470 | 3118 ft | 151 kts | 304° |
| 2026-04-23 20:52 | 48.05796 | 16.73081 | 2853 ft | 141 kts | 304° |
| 2026-04-23 20:53 | 48.06217 | 16.71808 | 2694 ft | 129 kts | 304° |
| 2026-04-23 20:53 | 48.06622 | 16.70591 | 2535 ft | 130 kts | 304° |
| 2026-04-23 20:53 | 48.07035 | 16.69337 | 2338 ft | 130 kts | 302° |
| 2026-04-23 20:53 | 48.07433 | 16.68116 | 2157 ft | 129 kts | 304° |
| 2026-04-23 20:54 | 48.07840 | 16.66884 | 1980 ft | 131 kts | 303° |
| 2026-04-23 20:54 | 48.08241 | 16.65659 | 1802 ft | 129 kts | 302° |
| 2026-04-23 20:54 | 48.08647 | 16.64421 | 1635 ft | 132 kts | 302° |
| 2026-04-23 20:54 | 48.09043 | 16.63209 | 1457 ft | 126 kts | 302° |
| 2026-04-23 20:55 | 48.09435 | 16.62017 | 1305 ft | 121 kts | 301° |
| 2026-04-23 20:55 | 48.09826 | 16.60829 | 1112 ft | 128 kts | 301° |
| 2026-04-23 20:55 | 48.10222 | 16.59625 | 940 ft | 127 kts | 300° |
| 2026-04-23 20:55 | 48.10625 | 16.58396 | 761 ft | 129 kts | 299° |
| 2026-04-23 20:56 | 48.11019 | 16.57194 | 607 ft | 131 kts | 298° |
| 2026-04-23 20:56 | 48.11353 | 16.56217 | 591 ft | 76 kts | 296° |
| 2026-04-23 20:56 | 48.11500 | 16.55736 | 585 ft | 30 kts | 291° |
| 2026-04-23 20:56 | 48.11619 | 16.55429 | 583 ft | 38 kts | 311° |
| 2026-04-23 20:57 | 48.11791 | 16.55168 | 583 ft | 25 kts | 330° |
| 2026-04-23 20:57 | 48.11884 | 16.55154 | 583 ft | 11 kts | 20° |
| 2026-04-23 20:57 | 48.11955 | 16.55176 | 583 ft | 10 kts | 353° |
| 2026-04-23 20:57 | 48.12039 | 16.55203 | 583 ft | 0 kts | 24° |
| 2026-04-23 20:58 | 48.12070 | 16.55224 | 582 ft | 0 kts | 25° |
| 2026-04-23 20:58 | 48.12132 | 16.55260 | 581 ft | 12 kts | 4° |
| 2026-04-23 20:58 | 48.12167 | 16.55230 | 580 ft | 1 kts | 286° |
| 2026-04-23 20:59 | 48.12168 | 16.55227 | 580 ft | 0 kts | 295° |